createdAt,value
2018-09-26T00:01:43.601Z,9.60
2018-09-26T00:04:18.564Z,9.60
2018-09-26T00:06:46.987Z,9.60
2018-09-26T00:09:15.419Z,9.50
2018-09-26T00:11:43.828Z,9.50
2018-09-26T00:14:12.260Z,9.50
2018-09-26T00:16:40.702Z,9.40
2018-09-26T00:19:09.108Z,9.30
2018-09-26T00:21:37.552Z,9.30
2018-09-26T00:24:06.041Z,9.30
2018-09-26T00:26:34.462Z,9.30
2018-09-26T00:29:02.919Z,9.30
2018-09-26T00:31:31.355Z,9.30
2018-09-26T00:33:59.769Z,9.30
2018-09-26T00:36:28.176Z,9.20
2018-09-26T00:38:56.597Z,9.20
2018-09-26T00:41:25.024Z,9.20
2018-09-26T00:43:53.466Z,9.20
2018-09-26T00:46:21.904Z,9.30
2018-09-26T00:48:50.312Z,9.30
2018-09-26T00:51:18.742Z,9.30
2018-09-26T00:53:47.424Z,9.30
2018-09-26T00:56:15.881Z,9.30
2018-09-26T00:58:44.315Z,9.30
2018-09-26T01:01:12.981Z,9.30
2018-09-26T01:03:41.403Z,9.30
2018-09-26T01:06:09.804Z,9.30
2018-09-26T01:08:38.241Z,9.30
2018-09-26T01:11:06.764Z,9.30
2018-09-26T01:13:35.156Z,9.30
2018-09-26T01:16:03.587Z,9.30
2018-09-26T01:18:32.000Z,9.30
2018-09-26T01:21:00.424Z,9.30
2018-09-26T01:23:28.881Z,9.30
2018-09-26T01:25:57.412Z,9.30
2018-09-26T01:28:25.819Z,9.30
2018-09-26T01:30:54.267Z,9.20
2018-09-26T01:33:22.672Z,9.20
2018-09-26T01:35:51.120Z,9.20
2018-09-26T01:38:19.549Z,9.10
2018-09-26T01:40:48.276Z,9.10
2018-09-26T01:43:16.678Z,9.20
2018-09-26T01:45:45.105Z,9.20
2018-09-26T01:48:13.537Z,9.10
2018-09-26T01:50:41.968Z,9.10
2018-09-26T01:53:10.393Z,9.10
2018-09-26T01:55:38.807Z,9.10
2018-09-26T01:58:07.293Z,9.10
2018-09-26T02:00:35.793Z,9.00
2018-09-26T02:04:07.752Z,9.00
2018-09-26T02:06:36.175Z,9.10
2018-09-26T02:09:07.508Z,9.00
2018-09-26T02:11:35.913Z,9.00
2018-09-26T02:15:07.780Z,9.00
2018-09-26T02:17:36.182Z,9.00
2018-09-26T02:20:04.697Z,9.00
2018-09-26T02:22:33.121Z,9.00
2018-09-26T02:25:01.703Z,9.00
2018-09-26T02:27:30.093Z,8.90
2018-09-26T02:29:58.524Z,9.00
2018-09-26T02:32:26.937Z,9.00
2018-09-26T02:34:55.708Z,9.00
2018-09-26T02:37:24.114Z,9.00
2018-09-26T02:39:52.530Z,9.00
2018-09-26T02:42:20.921Z,9.00
2018-09-26T02:44:49.347Z,9.00
2018-09-26T02:47:17.794Z,9.00
2018-09-26T02:49:46.241Z,9.00
2018-09-26T02:52:14.664Z,9.00
2018-09-26T02:54:43.151Z,9.00
2018-09-26T02:57:11.597Z,9.00
2018-09-26T02:59:40.304Z,9.00
2018-09-26T03:02:08.728Z,9.00
2018-09-26T03:04:37.172Z,9.00
2018-09-26T03:07:05.596Z,8.90
2018-09-26T03:09:34.013Z,8.90
2018-09-26T03:12:02.429Z,8.90
2018-09-26T03:14:30.836Z,8.90
2018-09-26T03:16:59.269Z,8.80
2018-09-26T03:19:27.668Z,8.80
2018-09-26T03:21:56.078Z,8.80
2018-09-26T03:24:24.485Z,8.80
2018-09-26T03:26:52.888Z,8.80
2018-09-26T03:29:21.321Z,8.70
2018-09-26T03:31:49.720Z,8.70
2018-09-26T03:34:18.146Z,8.70
2018-09-26T03:36:46.561Z,8.70
2018-09-26T03:39:15.059Z,8.70
2018-09-26T03:41:43.489Z,8.70
2018-09-26T03:44:11.917Z,8.70
2018-09-26T03:46:40.297Z,8.60
2018-09-26T03:49:08.744Z,8.60
2018-09-26T03:51:37.160Z,8.60
2018-09-26T03:54:05.569Z,8.60
2018-09-26T03:56:33.996Z,8.60
2018-09-26T03:59:02.411Z,8.60
2018-09-26T04:01:30.881Z,8.60
2018-09-26T04:03:59.280Z,8.60
2018-09-26T04:06:27.786Z,8.60
2018-09-26T04:08:56.229Z,8.60
2018-09-26T04:11:24.636Z,8.60
2018-09-26T04:13:53.057Z,8.60
2018-09-26T04:16:21.485Z,8.60
2018-09-26T04:18:49.981Z,8.60
2018-09-26T04:21:18.390Z,8.50
2018-09-26T04:23:46.804Z,8.50
2018-09-26T04:26:15.243Z,8.50
2018-09-26T04:28:43.691Z,8.50
2018-09-26T04:31:12.115Z,8.50
2018-09-26T04:33:40.629Z,8.50
2018-09-26T04:36:08.960Z,8.50
2018-09-26T04:38:37.527Z,8.50
2018-09-26T04:41:06.530Z,8.40
2018-09-26T04:43:35.081Z,8.40
2018-09-26T04:46:03.497Z,8.40
2018-09-26T04:48:31.965Z,8.40
2018-09-26T04:51:00.357Z,8.40
2018-09-26T04:53:28.770Z,8.40
2018-09-26T04:55:57.188Z,8.40
2018-09-26T04:58:25.633Z,8.40
2018-09-26T05:00:54.045Z,8.50
2018-09-26T05:03:22.456Z,8.50
2018-09-26T05:05:50.900Z,8.50
2018-09-26T05:08:19.375Z,8.50
2018-09-26T05:10:47.785Z,8.50
2018-09-26T05:13:16.193Z,8.40
2018-09-26T05:15:44.654Z,8.50
2018-09-26T05:18:13.049Z,8.50
2018-09-26T05:20:41.480Z,8.60
2018-09-26T05:23:09.930Z,8.60
2018-09-26T05:25:38.318Z,8.50
2018-09-26T05:28:06.739Z,8.60
2018-09-26T05:30:35.191Z,8.60
2018-09-26T05:33:03.605Z,8.60
2018-09-26T05:35:32.031Z,8.60
2018-09-26T05:38:00.456Z,8.60
2018-09-26T05:40:28.861Z,8.60
2018-09-26T05:42:57.276Z,8.70
2018-09-26T05:45:25.713Z,8.70
2018-09-26T05:47:54.128Z,8.70
2018-09-26T05:50:22.519Z,8.80
2018-09-26T05:52:50.933Z,8.80
2018-09-26T05:55:19.344Z,8.80
2018-09-26T05:57:47.780Z,8.80
2018-09-26T06:00:16.210Z,8.80
2018-09-26T06:02:44.600Z,8.80
2018-09-26T06:05:13.060Z,8.80
2018-09-26T06:07:41.461Z,8.80
2018-09-26T06:10:09.899Z,8.80
2018-09-26T06:12:38.400Z,8.70
2018-09-26T06:15:07.135Z,8.80
2018-09-26T06:17:35.933Z,8.80
2018-09-26T06:20:04.720Z,8.80
2018-09-26T06:22:33.205Z,8.70
2018-09-26T06:25:01.632Z,8.80
2018-09-26T06:27:30.087Z,8.80
2018-09-26T06:29:58.509Z,8.80
2018-09-26T06:32:26.899Z,8.90
2018-09-26T06:34:55.321Z,8.90
2018-09-26T06:37:23.725Z,9.00
2018-09-26T06:39:52.172Z,9.00
2018-09-26T06:42:20.674Z,9.10
2018-09-26T06:44:49.097Z,9.10
2018-09-26T06:47:17.661Z,9.10
2018-09-26T06:49:46.058Z,9.20
2018-09-26T06:52:14.540Z,9.30
2018-09-26T06:54:42.965Z,9.30
2018-09-26T06:57:12.268Z,9.30
2018-09-26T06:59:40.662Z,9.30
2018-09-26T07:02:09.525Z,9.40
2018-09-26T07:04:37.977Z,9.40
2018-09-26T07:07:06.405Z,9.50
2018-09-26T07:09:34.868Z,9.60
2018-09-26T07:12:03.355Z,9.60
2018-09-26T07:14:31.853Z,9.60
2018-09-26T07:17:00.278Z,9.60
2018-09-26T07:19:28.729Z,9.60
2018-09-26T07:21:57.140Z,9.60
2018-09-26T07:24:25.620Z,9.60
2018-09-26T07:26:54.094Z,9.60
2018-09-26T07:29:22.541Z,9.70
2018-09-26T07:31:50.961Z,9.80
2018-09-26T07:34:23.608Z,9.90
2018-09-26T07:36:52.187Z,9.90
2018-09-26T07:39:20.634Z,10.00
2018-09-26T07:41:49.064Z,10.10
2018-09-26T07:44:17.476Z,10.20
2018-09-26T07:46:45.920Z,10.30
2018-09-26T07:49:14.622Z,10.30
2018-09-26T07:51:43.070Z,10.40
2018-09-26T07:54:11.481Z,10.40
2018-09-26T07:56:39.932Z,10.50
2018-09-26T07:59:08.451Z,10.50
2018-09-26T08:01:36.853Z,10.50
2018-09-26T08:04:05.293Z,10.60
2018-09-26T08:06:33.705Z,10.70
2018-09-26T08:09:02.121Z,10.90
2018-09-26T08:11:30.619Z,11.00
2018-09-26T08:13:58.958Z,11.00
2018-09-26T08:16:27.379Z,11.10
2018-09-26T08:18:55.835Z,11.20
2018-09-26T08:21:24.223Z,11.20
2018-09-26T08:23:52.737Z,11.30
2018-09-26T08:26:21.136Z,11.40
2018-09-26T08:28:49.555Z,11.50
2018-09-26T08:31:17.957Z,11.60
2018-09-26T08:33:46.384Z,11.70
2018-09-26T08:36:14.842Z,11.80
2018-09-26T08:38:43.253Z,11.90
2018-09-26T08:41:11.687Z,11.90
2018-09-26T08:43:40.125Z,12.00
2018-09-26T08:46:08.621Z,12.00
2018-09-26T08:48:37.080Z,12.10
2018-09-26T08:51:05.544Z,12.20
2018-09-26T08:53:34.050Z,12.30
2018-09-26T08:56:02.504Z,12.40
2018-09-26T08:58:30.928Z,12.40
2018-09-26T09:00:59.384Z,12.50
2018-09-26T09:08:16.020Z,12.60
2018-09-26T09:12:08.930Z,12.80
2018-09-26T09:14:37.434Z,12.90
2018-09-26T09:17:05.997Z,13.10
2018-09-26T09:19:34.396Z,13.20
2018-09-26T09:22:02.875Z,13.30
2018-09-26T09:24:31.289Z,13.40
2018-09-26T09:26:59.769Z,13.50
2018-09-26T09:29:28.541Z,13.70
2018-09-26T09:31:57.002Z,13.80
2018-09-26T09:34:25.588Z,14.00
2018-09-26T09:36:54.049Z,14.10
2018-09-26T09:39:22.563Z,14.20
2018-09-26T09:41:50.965Z,14.40
2018-09-26T09:44:19.417Z,14.50
2018-09-26T09:46:47.846Z,14.60
2018-09-26T09:49:16.285Z,14.70
2018-09-26T09:51:44.807Z,14.70
2018-09-26T09:54:13.127Z,14.90
2018-09-26T09:56:41.620Z,15.00
2018-09-26T09:59:10.076Z,15.10
2018-09-26T10:01:38.492Z,15.10
2018-09-26T10:04:06.948Z,15.10
2018-09-26T10:06:35.394Z,15.00
2018-09-26T10:09:04.441Z,15.00
2018-09-26T10:11:33.019Z,14.90
2018-09-26T10:14:01.434Z,14.90
2018-09-26T10:16:29.852Z,14.80
2018-09-26T10:18:58.280Z,14.80
2018-09-26T10:21:26.753Z,14.80
2018-09-26T10:23:55.497Z,14.80
2018-09-26T10:26:24.010Z,14.90
2018-09-26T10:28:52.449Z,14.90
2018-09-26T10:31:20.885Z,15.00
2018-09-26T10:33:49.322Z,15.10
2018-09-26T10:36:17.777Z,15.20
2018-09-26T10:38:46.313Z,15.40
2018-09-26T10:41:14.787Z,15.60
2018-09-26T10:43:43.214Z,15.60
2018-09-26T10:46:11.674Z,15.70
2018-09-26T10:48:40.200Z,15.90
2018-09-26T10:51:08.749Z,15.90
2018-09-26T10:53:37.162Z,16.00
2018-09-26T10:56:05.593Z,16.00
2018-09-26T10:58:34.138Z,16.10
2018-09-26T11:01:02.569Z,16.10
2018-09-26T11:03:30.993Z,16.20
2018-09-26T11:05:59.425Z,16.20
2018-09-26T11:08:27.848Z,16.30
2018-09-26T11:10:56.322Z,16.40
2018-09-26T11:13:24.724Z,16.50
2018-09-26T11:15:53.144Z,16.60
2018-09-26T11:18:21.687Z,16.50
2018-09-26T11:20:50.092Z,16.30
2018-09-26T11:23:18.525Z,16.20
2018-09-26T11:25:46.956Z,16.10
2018-09-26T11:28:15.379Z,16.20
2018-09-26T11:30:44.600Z,16.30
2018-09-26T11:33:13.029Z,16.40
2018-09-26T11:35:41.532Z,16.60
2018-09-26T11:38:10.119Z,16.60
2018-09-26T11:40:38.536Z,16.70
2018-09-26T11:43:07.184Z,16.80
2018-09-26T11:45:35.589Z,16.80
2018-09-26T11:48:04.008Z,16.90
2018-09-26T11:50:32.404Z,17.00
2018-09-26T11:53:00.853Z,17.00
2018-09-26T11:55:29.277Z,17.10
2018-09-26T11:57:57.721Z,17.20
2018-09-26T12:00:26.133Z,17.30
2018-09-26T12:02:54.714Z,17.40
2018-09-26T12:05:23.157Z,17.70
2018-09-26T12:07:51.884Z,18.00
2018-09-26T12:10:20.368Z,18.00
2018-09-26T12:12:48.780Z,18.20
2018-09-26T12:15:17.328Z,18.40
2018-09-26T12:17:45.745Z,18.40
2018-09-26T12:20:14.196Z,18.60
2018-09-26T12:22:42.720Z,18.70
2018-09-26T12:25:11.135Z,18.90
2018-09-26T12:27:39.642Z,19.20
2018-09-26T12:30:08.937Z,19.40
2018-09-26T12:32:37.713Z,19.70
2018-09-26T12:35:06.476Z,19.80
2018-09-26T12:37:34.896Z,19.70
2018-09-26T12:40:03.446Z,19.70
2018-09-26T12:42:31.944Z,19.80
2018-09-26T12:45:00.319Z,19.80
2018-09-26T12:47:28.772Z,20.00
2018-09-26T12:49:57.217Z,20.00
2018-09-26T12:52:25.684Z,20.00
2018-09-26T12:54:54.136Z,20.00
2018-09-26T12:57:22.648Z,20.20
2018-09-26T12:59:51.084Z,20.40
2018-09-26T13:02:19.749Z,20.60
2018-09-26T13:04:48.177Z,20.70
2018-09-26T13:07:16.613Z,20.80
2018-09-26T13:09:45.056Z,20.90
2018-09-26T13:12:13.534Z,21.10
2018-09-26T13:14:41.908Z,21.30
2018-09-26T13:17:10.358Z,21.70
2018-09-26T13:19:38.782Z,21.90
2018-09-26T13:22:07.286Z,22.10
2018-09-26T13:24:35.641Z,22.30
2018-09-26T13:27:04.090Z,22.60
2018-09-26T13:29:32.572Z,23.10
2018-09-26T13:32:01.386Z,23.20
2018-09-26T13:34:29.825Z,23.40
2018-09-26T13:36:58.292Z,23.50
2018-09-26T13:39:26.734Z,23.90
2018-09-26T13:41:55.253Z,24.30
2018-09-26T13:44:23.754Z,24.50
2018-09-26T13:46:52.194Z,24.80
2018-09-26T13:49:20.533Z,25.10
2018-09-26T13:51:49.909Z,25.30
2018-09-26T13:54:18.369Z,25.30
2018-09-26T13:56:46.820Z,25.40
2018-09-26T13:59:15.631Z,25.30
2018-09-26T14:01:44.124Z,25.30
2018-09-26T14:04:12.649Z,24.70
2018-09-26T14:06:41.056Z,24.10
2018-09-26T14:09:09.482Z,23.50
2018-09-26T14:11:37.943Z,22.80
2018-09-26T14:14:06.801Z,22.50
2018-09-26T14:16:35.224Z,22.20
2018-09-26T14:19:03.852Z,22.00
2018-09-26T14:21:32.363Z,21.80
2018-09-26T14:24:00.888Z,21.60
2018-09-26T14:26:29.315Z,21.30
2018-09-26T14:28:57.824Z,21.10
2018-09-26T14:31:26.684Z,20.90
2018-09-26T14:33:55.664Z,20.80
2018-09-26T14:36:24.150Z,20.70
2018-09-26T14:38:52.669Z,20.60
2018-09-26T14:41:21.124Z,20.40
2018-09-26T14:43:49.552Z,20.40
2018-09-26T14:46:17.994Z,20.20
2018-09-26T14:48:46.414Z,20.20
2018-09-26T14:51:14.897Z,20.00
2018-09-26T14:53:43.390Z,20.00
2018-09-26T14:56:11.859Z,20.10
2018-09-26T14:58:40.521Z,20.10
2018-09-26T15:01:08.976Z,20.00
2018-09-26T15:03:37.405Z,20.00
2018-09-26T15:06:05.950Z,19.80
2018-09-26T15:08:34.360Z,19.70
2018-09-26T15:11:02.816Z,19.70
2018-09-26T15:13:31.240Z,19.70
2018-09-26T15:15:59.704Z,19.70
2018-09-26T15:18:28.209Z,19.70
2018-09-26T15:20:56.775Z,19.70
2018-09-26T15:23:25.145Z,19.70
2018-09-26T15:25:53.550Z,19.80
2018-09-26T15:28:22.161Z,19.70
2018-09-26T15:30:50.577Z,19.60
2018-09-26T15:33:19.010Z,19.60
2018-09-26T15:35:47.397Z,19.60
2018-09-26T15:38:15.943Z,19.60
2018-09-26T15:40:44.297Z,19.50
2018-09-26T15:43:12.749Z,19.50
2018-09-26T15:45:41.196Z,19.50
2018-09-26T15:48:09.741Z,19.60
2018-09-26T15:50:38.098Z,19.50
2018-09-26T15:53:06.717Z,19.50
2018-09-26T15:55:35.465Z,19.40
2018-09-26T15:58:04.080Z,19.40
2018-09-26T16:00:32.509Z,19.40
2018-09-26T16:03:01.085Z,19.40
2018-09-26T16:05:29.458Z,19.30
2018-09-26T16:07:57.917Z,19.20
2018-09-26T16:10:26.792Z,19.20
2018-09-26T16:12:55.133Z,19.10
2018-09-26T16:15:23.616Z,19.10
2018-09-26T16:17:52.305Z,19.00
2018-09-26T16:20:20.764Z,19.00
2018-09-26T16:22:49.361Z,19.00
2018-09-26T16:25:17.831Z,19.00
2018-09-26T16:27:46.324Z,19.00
2018-09-26T16:30:14.842Z,19.00
2018-09-26T16:32:43.321Z,18.90
2018-09-26T16:35:11.761Z,18.90
2018-09-26T16:37:40.172Z,18.90
2018-09-26T16:40:08.669Z,18.90
2018-09-26T16:42:37.209Z,18.80
2018-09-26T16:45:06.422Z,18.70
2018-09-26T16:47:34.867Z,18.60
2018-09-26T16:50:03.356Z,18.50
2018-09-26T16:52:31.796Z,18.50
2018-09-26T16:55:00.342Z,18.50
2018-09-26T16:57:28.857Z,18.40
2018-09-26T16:59:57.321Z,18.40
2018-09-26T17:02:25.853Z,18.30
2018-09-26T17:04:54.252Z,18.30
2018-09-26T17:07:22.745Z,18.20
2018-09-26T17:09:51.225Z,18.10
2018-09-26T17:12:19.730Z,18.10
2018-09-26T17:14:48.134Z,18.00
2018-09-26T17:17:16.595Z,17.90
2018-09-26T17:19:45.169Z,17.80
2018-09-26T17:22:13.712Z,17.70
2018-09-26T17:24:42.123Z,17.60
2018-09-26T17:27:10.910Z,17.50
2018-09-26T17:29:39.334Z,17.50
2018-09-26T17:32:07.779Z,17.30
2018-09-26T17:34:36.288Z,17.20
2018-09-26T17:37:05.052Z,17.10
2018-09-26T17:39:33.558Z,17.10
2018-09-26T17:42:02.164Z,17.00
2018-09-26T17:44:31.269Z,16.90
2018-09-26T17:46:59.685Z,16.90
2018-09-26T17:49:28.103Z,16.70
2018-09-26T17:51:56.537Z,16.60
2018-09-26T17:54:25.277Z,16.50
2018-09-26T17:56:53.713Z,16.40
2018-09-26T17:59:22.228Z,16.40
2018-09-26T18:01:51.060Z,16.30
2018-09-26T18:04:19.466Z,16.20
2018-09-26T18:06:47.937Z,16.10
2018-09-26T18:09:17.454Z,16.10
2018-09-26T18:11:45.977Z,16.10
2018-09-26T18:14:14.428Z,16.00
2018-09-26T18:16:42.912Z,15.90
2018-09-26T18:19:11.390Z,15.80
2018-09-26T18:21:39.854Z,15.80
2018-09-26T18:24:08.319Z,15.80
2018-09-26T18:26:36.794Z,15.70
2018-09-26T18:29:05.277Z,15.70
2018-09-26T18:31:33.841Z,15.70
2018-09-26T18:34:02.247Z,15.70
2018-09-26T18:36:30.669Z,15.60
2018-09-26T18:38:59.290Z,15.60
2018-09-26T18:41:27.655Z,15.60
2018-09-26T18:43:56.142Z,15.60
2018-09-26T18:46:24.607Z,15.60
2018-09-26T18:48:53.061Z,15.60
2018-09-26T18:51:21.524Z,15.60
2018-09-26T18:53:49.982Z,15.50
2018-09-26T18:56:18.442Z,15.50
2018-09-26T18:58:47.046Z,15.50
2018-09-26T19:01:15.448Z,15.40
2018-09-26T19:03:43.901Z,15.40
2018-09-26T19:06:12.408Z,15.40
2018-09-26T19:08:40.880Z,15.30
2018-09-26T19:11:09.317Z,15.30
2018-09-26T19:13:37.905Z,15.30
2018-09-26T19:16:06.599Z,15.20
2018-09-26T19:18:34.997Z,15.20
2018-09-26T19:21:03.506Z,15.10
2018-09-26T19:23:31.910Z,15.10
2018-09-26T19:26:00.388Z,15.10
2018-09-26T19:28:28.949Z,15.00
2018-09-26T19:30:57.429Z,14.90
2018-09-26T19:33:25.872Z,14.90
2018-09-26T19:35:54.453Z,14.90
2018-09-26T19:38:22.881Z,14.90
2018-09-26T19:40:51.401Z,14.80
2018-09-26T19:43:19.885Z,14.80
2018-09-26T19:45:48.349Z,14.70
2018-09-26T19:48:16.850Z,14.70
2018-09-26T19:50:45.369Z,14.60
2018-09-26T19:53:13.908Z,14.60
2018-09-26T19:55:42.353Z,14.60
2018-09-26T19:58:10.926Z,14.50
2018-09-26T20:00:39.462Z,14.50
2018-09-26T20:03:08.103Z,14.40
2018-09-26T20:05:36.772Z,14.40
2018-09-26T20:08:05.369Z,14.40
2018-09-26T20:10:33.858Z,14.40
2018-09-26T20:13:02.370Z,14.40
2018-09-26T20:15:30.953Z,14.40
2018-09-26T20:17:59.750Z,14.30
2018-09-26T20:20:28.280Z,14.30
2018-09-26T20:22:56.864Z,14.30
2018-09-26T20:25:25.357Z,14.20
2018-09-26T20:27:53.939Z,14.20
2018-09-26T20:30:23.461Z,14.20
2018-09-26T20:32:51.985Z,14.20
2018-09-26T20:35:20.497Z,14.10
2018-09-26T20:37:48.982Z,14.10
2018-09-26T20:40:17.513Z,14.10
2018-09-26T20:42:46.046Z,14.00
2018-09-26T20:45:14.588Z,14.00
2018-09-26T20:47:43.074Z,14.00
2018-09-26T20:50:11.649Z,14.00
2018-09-26T20:52:40.150Z,14.00
2018-09-26T20:55:08.619Z,13.90
2018-09-26T20:57:37.108Z,13.90
2018-09-26T21:00:05.648Z,13.90
2018-09-26T21:02:34.168Z,13.90
2018-09-26T21:05:02.611Z,13.90
2018-09-26T21:07:31.020Z,13.90
2018-09-26T21:09:59.441Z,13.90
2018-09-26T21:12:27.858Z,13.80
2018-09-26T21:14:56.397Z,13.80
2018-09-26T21:17:24.928Z,13.80
2018-09-26T21:19:53.298Z,13.80
2018-09-26T21:22:21.734Z,13.80
2018-09-26T21:24:50.138Z,13.70
2018-09-26T21:27:18.552Z,13.70
2018-09-26T21:29:46.996Z,13.60
2018-09-26T21:32:15.435Z,13.60
2018-09-26T21:34:43.827Z,13.60
2018-09-26T21:37:12.373Z,13.60
2018-09-26T21:39:41.053Z,13.60
2018-09-26T21:42:09.476Z,13.60
2018-09-26T21:44:37.879Z,13.50
2018-09-26T21:47:06.339Z,13.50
2018-09-26T21:49:34.769Z,13.40
2018-09-26T21:52:03.256Z,13.40
2018-09-26T21:54:31.669Z,13.30
2018-09-26T21:57:00.108Z,13.30
2018-09-26T21:59:28.544Z,13.30
2018-09-26T22:01:57.012Z,13.30
2018-09-26T22:04:25.590Z,13.30
2018-09-26T22:06:53.993Z,13.20
2018-09-26T22:09:22.441Z,13.20
2018-09-26T22:11:50.906Z,13.20
2018-09-26T22:14:19.333Z,13.20
2018-09-26T22:16:47.772Z,13.20
2018-09-26T22:19:16.233Z,13.20
2018-09-26T22:21:44.660Z,13.20
2018-09-26T22:24:13.144Z,13.20
2018-09-26T22:26:41.558Z,13.20
2018-09-26T22:29:10.373Z,13.20
2018-09-26T22:31:38.812Z,13.20
2018-09-26T22:34:07.347Z,13.20
2018-09-26T22:36:35.764Z,13.20
2018-09-26T22:39:05.865Z,13.20
2018-09-26T22:41:34.288Z,13.10
2018-09-26T22:44:02.744Z,13.10
2018-09-26T22:46:31.235Z,13.10
2018-09-26T22:48:59.640Z,13.00
2018-09-26T22:51:28.084Z,13.10
2018-09-26T22:53:56.507Z,13.00
2018-09-26T22:56:24.903Z,13.00
2018-09-26T22:58:53.337Z,13.00
2018-09-26T23:01:21.798Z,12.90
2018-09-26T23:03:50.229Z,12.90
2018-09-26T23:06:18.667Z,12.90
2018-09-26T23:08:47.082Z,12.90
2018-09-26T23:11:15.513Z,12.90
2018-09-26T23:13:43.916Z,12.90
2018-09-26T23:16:12.531Z,12.80
2018-09-26T23:18:40.967Z,12.80
2018-09-26T23:21:09.397Z,12.70
2018-09-26T23:23:38.217Z,12.70
2018-09-26T23:26:06.642Z,12.70
2018-09-26T23:28:35.077Z,12.70
2018-09-26T23:31:03.594Z,12.70
2018-09-26T23:33:32.064Z,12.70
2018-09-26T23:36:00.480Z,12.60
2018-09-26T23:38:28.909Z,12.60
2018-09-26T23:40:57.339Z,12.50
2018-09-26T23:43:25.753Z,12.50
2018-09-26T23:45:54.256Z,12.50
2018-09-26T23:48:22.773Z,12.50
2018-09-26T23:50:51.181Z,12.50
2018-09-26T23:53:19.615Z,12.40
2018-09-26T23:55:48.055Z,12.40
2018-09-26T23:58:16.481Z,12.40
